Portada
METAR-TAF:

METAR-TAF

Aeroports :

Vladikavkaz, Rússia

latitud: 43-12-18N, longitud: 044-36-24E, altitud: 510 m

Observació

L'informe es va fer fa 4 hores i 23 minuts, a les 17:30 UTC
Vent 6 kt del Oest/Sud-Oest
Temperatura 22°C
Humitat 94%
Pressió 1011 hPa
Visibilitat 10 km o més
Cel ennuvolat a una alçada de 4600 ft, Cumulonimbus.
xàfecs de pluja

METAR: URMO 181730Z 24003MPS 9999 -SHRA BKN046CB 22/21 Q1011 R09/010070 NOSIG RMK QFE715/0953

Hora: 00:53 (21:53 UTC)

Pronòstic

L'informe es va fer fa 7 hores i 53 minuts, a les 14:00 UTC
Pronòstic vàlid del 18 a les 15 UTC al 18 a les 24 UTC
Vent 6 kt del Oest amb ràfegues de 16 kt
Visibilitat 10 km o més
Cel ennuvolat a una alçada de 3000 ft, Cumulonimbus.

TAF: URMO 181400Z 1815/1824 26003G08MPS 9999 BKN030CB

Observacions i pronòstics meteorològics de més de 4000 aeroports (METAR i TAF).

Les estacions disponibles són els punts grocs i vermells al mapa.

Posi el ratolí al punt desitjat per veure el nom de l'estació.

Feu clic per veure les observacions i els pronòstics meteorològics.

Per canviar el mapa: feu clic els botons verds amb una creu de color negre per apropar; al botó verd amb un guió per allunyar la imatge; o en les fletxes verdes per a mapes adjacents.


METAR-TAF: